Aviation Digital Data Service (ADDS)

Output produced by METARs form (1725 UTC 31 July 2015)
found at http://aviationweather.gov/adds/metars/
 
KRDU 311722Z 3118/0118 32005KT P6SM FEW070 
     FM010100 VRB04KT P6SM FEW250 
     FM011400 01007KT P6SM FEW080